Langley Air Force Base
KLFI : now visible

Airfield :











YOU CAN JOIN US ON...

 
LOGIN :

Register | Disclaimer

   EN    FR    IT 

 









Legend :    VFR   Marginal VFR   IFR   Intensive IFR   Very Intensive IFR
Visi :
Ceiling :
>= 8 km
>= 3000ft
5 to 8 km
1000 to 3000 ft
1500m to 5 km
500 to 1000 ft
800 to 1500m
200 to 500 ft
< 800m
< 200 ft
Symbols :   Thunderstorms  Fog  Heavy snow  Heavy precipitations  Wind > 20 kt






- Airport Elevation : 11 ft


KLFI - Langley Air Force Base

CURRENT METAR :
  • 281226Z AUTO 05004KT 10SM BKN016 15/14 A2995 RMK AO2 BKN V SCT SLP148 $

EXPIRED METARs :
  • 281156Z AUTO 00000KT 10SM SCT018 15/14 A2994 RMK AO2 SLP145 60000 T01450135 10145 20130 58005 $
  • 281056Z AUTO 12007KT 10SM SCT043 14/13 A2994 RMK AO2 SLP145 T01420134 $
  • 280956Z AUTO 13006KT 10SM OVC047 14/14 A2998 RMK AO2 SLP159 T01430137 $

TAF TAF KLFI
Valid from the 27 at 17:00 until the 28 at 23:00 UTC


271700Z 2717/2823 VRB06KT 9999 BKN140 QNH2987INS
BECMG 2806/2807 VRB06KT 9999 BKN020 QNH3003INS
BECMG 2816/2817 11009KT 8000 -SHRA BKN020 QNH2998INS TX24/2719Z TN13/2812Z LAST NO AMDS AFT 2718 NEXT 3009



MET'MAP, your aeronautical weather chart ! - Copyright ORBIFLY December 2007 - Disclaimer

ORBIFLY MET'MAP TEAM :

Programming & Development : Alexandra Zaïnal
Concept & original design : Baudouin d'Aumeries
Assistance for programming : Marc-Olivier Méhu
Technical & hardware support : Manuel Goepfert

Contact : metmap@orbifly.com




SOURCES & CREDITS :

   NOAA       Earth
Advisory